Aviation Digital Data Service (ADDS)

Output produced by METARs form (1204 UTC 16 July 2019)
found at http://www.aviationweather.gov/metar/data/
 
ZMUB 161200Z VRB02MPS 9999 SCT030CB SCT033 25/12 Q1008 NOSIG RMK QFE649.9 48 MOP
TAF ZMUB 161040Z 1612/1718 VRB02MPS 9999 FEW030CB SCT033 TN15/1621Z TX30/1707Z 
     TEMPO 1612/1624 VRB08MPS TS SHRA SCT030CB SCT033 
     TEMPO 1705/1718 VRB08MPS TS SHRA SCT030CB SCT033